Latest Coastal Weather Observations for Dennes Point

IDT60701

Issued at 2:11 am EDT Wednesday 4 March 2015 (issued every 10 minutes, with the page automatically refreshed every 10 minutes)

About coastal observations | Map of coastal stations | Coastal observations for TAS | Marine services | Other Formats
Station Details ID: 094255 Name: DENNES POINT Lat: -43.06 Lon: 147.36 Height: 5.67 m
Data from the previous 72 hours. | See also: Recent months at Dennes Point
Date/Time
EDT
Temp

°C
Wind Pressure Rain
since 9am
mm
Weather Cloud Vis
km
Sea
Height
m
Swell
Dir
 
Speed
knots
Gust
knots
hPa Trend Height
m
Period
s
Dir
04/02:00am 14.6 NNW 8 11 1006.9 - 0.0 - - - - - - -
04/01:30am 14.3 WNW 11 17 1007.4 - 0.0 - - - - - - -
04/01:00am 14.3 WNW 13 23 1007.7 - 0.0 - - - - - - -
04/12:53am 14.3 W 9 23 1007.7 - 0.0 - - - - - - -
04/12:30am 14.3 NW 4 8 1008.1 - 0.0 - - - - - - -
04/12:00am 14.2 NW 7 12 1008.6 - 0.0 - - - - - - -
 
Date/Time
EDT
Temp

°C
Wind Pressure Rain
since 9am
mm
Weather Cloud Vis
km
Sea
Height
m
Swell
Dir
 
Speed
knots
Gust
knots
hPa Trend Height
m
Period
s
Dir
03/11:30pm 14.5 WNW 14 19 1008.8 - 0.0 - - - - - - -
03/11:00pm 14.5 W 17 23 1009.3 - 0.0 - - - - - - -
03/10:30pm 14.9 W 21 28 1009.9 - 0.0 - - - - - - -
03/10:14pm 14.5 W 15 22 1010.0 - 0.0 - - - - - - -
03/10:00pm 13.5 W 9 11 1010.3 - 0.0 - - - - - - -
03/09:30pm 11.7 SSW 3 5 1010.5 - 0.0 - - - - - - -
03/09:00pm 12.0 SW 4 4 1010.6 - 0.0 - - - - - - -
03/08:30pm 12.2 SW 5 6 1010.5 - 0.0 - - - - - - -
03/08:00pm 13.6 SW 6 8 1010.4 - 0.0 - - - - - - -
03/07:30pm 14.6 SE 6 9 1010.5 - 0.0 - - - - - - -
03/07:00pm 15.1 ESE 9 12 1010.8 - 0.0 - - - - - - -
03/06:30pm 15.4 ESE 10 14 1010.9 - 0.0 - - - - - - -
03/06:00pm 15.9 ESE 11 14 1010.8 - 0.0 - - - - - - -
03/05:30pm 16.6 SE 9 13 1010.8 - 0.0 - - - - - - -
03/05:00pm 16.9 ESE 12 15 1011.0 - 0.0 - - - - - - -
03/04:30pm 17.5 ESE 11 14 1011.0 - 0.0 - - - - - - -
03/04:00pm 18.6 ESE 9 12 1011.4 - 0.0 - - - - - - -
03/03:30pm 17.0 ESE 9 11 1011.6 - 0.0 - - - - - - -
03/03:00pm 18.1 ESE 7 9 1012.0 - 0.0 - - - - - - -
03/02:30pm 19.3 W 9 13 1012.2 - 0.0 - - - - - - -
03/02:00pm 19.4 WNW 8 14 1012.4 - 0.0 - - - - - - -
03/01:30pm 18.7 W 7 10 1013.0 - 0.0 - - - - - - -
03/01:00pm 18.6 SW 7 10 1013.3 - 0.0 - - - - - - -
03/12:30pm 17.9 WSW 7 10 1013.8 - 0.0 - - - - - - -
03/12:00pm 17.6 W 7 11 1014.3 - 0.0 - - - - - - -
03/11:30am 16.0 W 11 14 1014.6 - 0.0 - - - - - - -
03/11:00am 16.8 WNW 9 11 1014.6 - 0.0 - - - - - - -
03/10:30am 16.3 W 12 17 1014.6 - 0.0 - - - - - - -
03/10:00am 16.0 W 14 20 1014.4 - 0.0 - - - - - - -
03/09:30am 16.3 W 13 19 1014.3 - 0.0 - - - - - - -
03/09:00am 15.5 WSW 8 11 1014.3 - 0.2 - - - - - - -
03/08:30am 13.7 W 3 7 1014.0 - 0.2 - - - - - - -
03/08:00am 13.5 S 2 4 1013.8 - 0.2 - - - - - - -
03/07:30am 13.5 SW 7 10 1013.5 - 0.2 - - - - - - -
03/07:00am 12.7 SE 2 4 1013.1 - 0.2 - - - - - - -
03/06:30am 12.9 SSW 2 4 1012.6 - 0.2 - - - - - - -
03/06:00am 13.9 SW 10 14 1012.1 - 0.2 - - - - - - -
03/05:30am 13.7 SSW 5 9 1011.7 - 0.2 - - - - - - -
03/05:00am 14.2 SW 8 11 1011.4 - 0.2 - - - - - - -
03/04:30am 14.8 SW 8 10 1011.3 - 0.2 - - - - - - -
03/04:00am 14.8 SSW 6 8 1011.1 - 0.2 - - - - - - -
03/03:30am 15.4 WNW 3 4 1010.9 - 0.2 - - - - - - -
03/03:00am 15.5 NW 6 7 1010.7 - 0.2 - - - - - - -
03/02:30am 15.6 NNW 6 8 1010.8 - 0.2 - - - - - - -
03/02:00am 15.3 NNW 7 11 1011.0 - 0.2 - - - - - - -
03/01:30am 15.4 NW 8 12 1011.1 - 0.2 - - - - - - -
03/01:00am 15.6 NW 9 13 1011.4 - 0.2 - - - - - - -
03/12:30am 15.2 WNW 8 11 1011.7 - 0.2 - - - - - - -
03/12:00am 14.9 WNW 6 9 1011.9 - 0.2 - - - - - - -
 
Date/Time
EDT
Temp

°C
Wind Pressure Rain
since 9am
mm
Weather Cloud Vis
km
Sea
Height
m
Swell
Dir
 
Speed
knots
Gust
knots
hPa Trend Height
m
Period
s
Dir
02/11:30pm 15.1 NW 8 10 1012.3 - 0.2 - - - - - - -
02/11:00pm 15.4 WNW 16 23 1012.2 - 0.2 - - - - - - -
02/10:30pm 15.7 WNW 18 24 1012.4 - 0.2 - - - - - - -
02/10:00pm 15.7 WNW 14 19 1012.2 - 0.2 - - - - - - -
02/09:30pm 14.9 WSW 8 11 1012.0 - 0.2 - - - - - - -
02/09:00pm 14.0 SW 4 9 1011.6 - 0.2 - - - - - - -
02/08:30pm 14.3 SSE 2 5 1011.0 - 0.2 - - - - - - -
02/08:00pm 14.8 SW 1 3 1010.5 - 0.2 - - - - - - -
02/07:30pm 16.6 SSW 4 6 1010.2 - 0.2 - - - - - - -
02/07:00pm 17.3 SW 4 5 1010.2 - 0.2 - - - - - - -
02/06:30pm 17.1 SW 3 5 1009.8 - 0.2 - - - - - - -
02/06:00pm 17.0 SW 4 5 1010.0 - 0.2 - - - - - - -
02/05:30pm 17.1 SW 7 8 1010.4 - 0.2 - - - - - - -
02/05:00pm 17.5 WSW 6 8 1010.6 - 0.2 - - - - - - -
02/04:30pm 17.8 WSW 6 8 1011.2 - 0.2 - - - - - - -
02/04:00pm 18.3 SE 3 4 1011.5 - 0.2 - - - - - - -
02/03:30pm 17.6 ESE 4 6 1012.1 - 0.2 - - - - - - -
02/03:00pm 17.5 ESE 5 8 1012.8 - 0.2 - - - - - - -
02/02:30pm 16.9 ESE 6 7 1013.2 - 0.2 - - - - - - -
02/02:00pm 16.8 ESE 7 10 1013.9 - 0.2 - - - - - - -
02/01:30pm 16.4 E 7 9 1014.4 - 0.2 - - - - - - -
02/01:00pm 16.0 ENE 6 8 1015.1 - 0.2 - - - - - - -
02/12:30pm 15.8 NE 5 7 1015.8 - 0.2 - - - - - - -
02/12:00pm 14.6 NNE 5 6 1016.9 - 0.2 Recent precip. - - - - - -
02/11:30am 14.4 NNE 6 8 1017.6 - 0.2 - - - - - - -
02/11:00am 13.6 NNE 7 9 1017.9 - 0.0 - - - - - - -
02/10:30am 12.9 NNE 6 10 1018.2 - 0.0 - - - - - - -
02/10:00am 12.2 NNE 7 10 1018.3 - 0.0 - - - - - - -
02/09:30am 11.7 N 4 6 1018.5 - 0.0 - - - - - - -
02/09:00am 11.6 SW 1 2 1018.7 - 0.0 - - - - - - -
02/08:30am 10.9 SW 1 4 1018.9 - 0.0 - - - - - - -
02/08:00am 10.3 SSW 3 5 1018.7 - 0.0 - - - - - - -
02/07:30am 9.5 S 3 4 1018.5 - 0.0 - - - - - - -
02/07:00am 8.8 CALM 0 0 1018.3 - 0.0 - - - - - - -
02/06:30am 7.8 S 3 5 1018.3 - 0.0 - - - - - - -
02/06:00am 8.0 SSW 4 6 1018.1 - 0.0 - - - - - - -
02/05:30am 8.8 WSW 5 7 1018.3 - 0.0 - - - - - - -
02/05:00am 9.2 W 6 8 1018.1 - 0.0 - - - - - - -
02/04:30am 9.8 W 9 11 1018.0 - 0.0 - - - - - - -
02/04:00am 9.6 W 8 10 1018.1 - 0.0 - - - - - - -
02/03:30am 8.9 SSW 6 8 1018.2 - 0.0 - - - - - - -
02/03:00am 9.8 SW 8 11 1017.8 - 0.0 - - - - - - -
02/02:30am 10.7 WSW 11 14 1017.8 - 0.0 - - - - - - -
02/02:00am 10.6 WSW 10 12 1017.7 - 0.0 - - - - - - -
02/01:30am 10.9 WSW 10 12 1017.8 - 0.0 - - - - - - -
02/01:00am 11.2 WSW 11 13 1017.6 - 0.0 - - - - - - -
02/12:30am 11.4 SW 10 12 1017.6 - 0.0 - - - - - - -
02/12:00am 11.5 WSW 8 11 1017.3 - 0.0 - - - - - - -
 
Date/Time
EDT
Temp

°C
Wind Pressure Rain
since 9am
mm
Weather Cloud Vis
km
Sea
Height
m
Swell
Dir
 
Speed
knots
Gust
knots
hPa Trend Height
m
Period
s
Dir
01/11:30pm 12.0 WSW 11 14 1017.3 - 0.0 - - - - - - -
01/11:00pm 10.8 SSW 5 10 1017.4 - 0.0 - - - - - - -
01/10:30pm 10.7 SSW 6 8 1017.3 - 0.0 - - - - - - -
01/10:00pm 11.3 S 5 7 1017.2 - 0.0 - - - - - - -
01/09:30pm 12.9 SSW 9 13 1016.9 - 0.0 - - - - - - -
01/09:00pm 12.7 SSW 6 11 1016.3 - 0.0 - - - - - - -
01/08:30pm 12.7 SW 5 7 1015.7 - 0.0 - - - - - - -
01/08:00pm 13.2 S 6 9 1015.1 - 0.0 - - - - - - -
01/07:30pm 14.1 S 4 8 1014.5 - 0.0 - - - - - - -
01/07:00pm 14.9 SW 9 13 1013.9 - 0.0 - - - - - - -
01/06:30pm 15.9 SW 10 15 1013.5 - 0.0 - - - - - - -
01/06:00pm 14.8 S 11 16 1013.2 - 0.0 - - - - - - -
01/05:30pm 14.5 S 12 19 1012.7 - 0.0 - - - - - - -
01/05:00pm 15.7 S 8 13 1012.2 - 0.0 - - - - - - -
01/04:30pm 15.3 SW 11 16 1011.9 - 0.0 - - - - - - -
01/04:00pm 15.1 S 12 19 1011.6 - 0.0 - - - - - - -
01/03:30pm 15.1 S 11 16 1011.1 - 0.0 - - - - - - -
01/03:00pm 15.0 S 9 15 1010.8 - 0.0 - - - - - - -
01/02:30pm 15.8 SW 5 8 1010.3 - 0.0 - - - - - - -
01/02:00pm 14.8 S 8 13 1009.9 - 0.0 - - - - - - -
01/01:30pm 16.9 SW 7 12 1009.6 - 0.0 - - - - - - -
01/01:00pm 17.4 SW 14 20 1009.2 - 0.0 - - - - - - -
01/12:30pm 16.5 SW 11 18 1008.9 - 0.0 - - - - - - -
01/12:00pm 17.8 SW 14 21 1008.2 - 0.0 - - - - - - -
01/11:30am 17.5 SW 14 19 1007.9 - 0.0 - - - - - - -
01/11:00am 16.3 WSW 13 20 1007.6 - 0.0 - - - - - - -
01/10:30am 16.7 SW 12 17 1007.2 - 0.0 - - - - - - -
01/10:00am 15.8 WSW 15 21 1006.3 - 0.0 - - - - - - -
01/09:30am 14.8 SW 12 16 1006.0 - 0.0 - - - - - - -
01/09:00am 14.8 SW 14 19 1005.4 - 2.4 - - - - - - -
01/08:30am 14.6 WSW 14 21 1004.6 - 2.4 - - - - - - -
01/08:00am 14.4 WSW 14 18 1003.9 - 2.4 - - - - - - -
01/07:30am 14.3 WSW 13 16 1003.2 - 2.4 - - - - - - -
01/07:00am 14.2 WSW 12 14 1002.5 - 2.4 - - - - - - -
01/06:30am 14.4 W 13 16 1001.8 - 2.4 - - - - - - -
01/06:00am 14.8 W 15 21 1001.3 - 2.4 - - - - - - -
01/05:30am 15.3 WSW 15 21 1001.0 - 2.4 - - - - - - -
01/05:00am 15.8 W 14 19 1000.6 - 2.4 - - - - - - -
01/04:30am 15.9 W 11 15 1000.4 - 2.4 - - - - - - -
01/04:00am 16.2 WNW 14 21 999.9 - 2.4 - - - - - - -
01/03:30am 16.4 WNW 13 17 999.9 - 2.4 - - - - - - -
01/03:00am 16.8 W 14 23 999.8 - 2.4 - - - - - - -
01/02:30am 17.0 W 16 22 999.4 - 2.4 - - - - - - -

Other Formats:

Comma delimited format used in spreadsheet applications
http://www.bom.gov.au/fwo/IDT60701/IDT60701.94988.axf

JavaScript Object Notation format (JSON) in row-major order
http://www.bom.gov.au/fwo/IDT60701/IDT60701.94988.json